sensor_id;sensor_type;location;lat;lon;timestamp;P1;durP1;ratioP1;P2;durP2;ratioP2
16039;SDS011;8124;48.634;8.120;2022-07-06T00:02:51;43.10;;;38.58;;
16039;SDS011;8124;48.634;8.120;2022-07-06T00:07:55;43.15;;;38.55;;
16039;SDS011;8124;48.634;8.120;2022-07-06T00:12:58;42.83;;;38.42;;
16039;SDS011;8124;48.634;8.120;2022-07-06T00:18:01;42.55;;;38.05;;
16039;SDS011;8124;48.634;8.120;2022-07-06T00:23:06;42.70;;;38.13;;
16039;SDS011;8124;48.634;8.120;2022-07-06T00:28:09;45.80;;;41.00;;
16039;SDS011;8124;48.634;8.120;2022-07-06T00:33:12;42.78;;;38.22;;
16039;SDS011;8124;48.634;8.120;2022-07-06T00:38:17;42.60;;;38.22;;
16039;SDS011;8124;48.634;8.120;2022-07-06T00:43:21;42.33;;;37.92;;
16039;SDS011;8124;48.634;8.120;2022-07-06T00:48:24;42.13;;;37.72;;
16039;SDS011;8124;48.634;8.120;2022-07-06T00:53:29;42.83;;;38.33;;
16039;SDS011;8124;48.634;8.120;2022-07-06T00:58:32;42.47;;;38.03;;
16039;SDS011;8124;48.634;8.120;2022-07-06T01:03:36;42.92;;;38.45;;
16039;SDS011;8124;48.634;8.120;2022-07-06T01:08:40;42.60;;;37.67;;
16039;SDS011;8124;48.634;8.120;2022-07-06T01:13:43;43.55;;;38.53;;
16039;SDS011;8124;48.634;8.120;2022-07-06T01:18:47;42.78;;;38.28;;
16039;SDS011;8124;48.634;8.120;2022-07-06T01:23:51;42.22;;;37.72;;
16039;SDS011;8124;48.634;8.120;2022-07-06T01:28:54;42.33;;;37.83;;
16039;SDS011;8124;48.634;8.120;2022-07-06T01:33:57;42.00;;;37.67;;
16039;SDS011;8124;48.634;8.120;2022-07-06T01:39:02;43.13;;;38.28;;
16039;SDS011;8124;48.634;8.120;2022-07-06T01:44:05;48.65;;;37.92;;
16039;SDS011;8124;48.634;8.120;2022-07-06T01:49:10;42.25;;;37.63;;
16039;SDS011;8124;48.634;8.120;2022-07-06T01:54:15;42.63;;;38.13;;
16039;SDS011;8124;48.634;8.120;2022-07-06T01:59:18;42.30;;;37.80;;
16039;SDS011;8124;48.634;8.120;2022-07-06T02:04:21;42.40;;;37.80;;
16039;SDS011;8124;48.634;8.120;2022-07-06T02:09:26;42.15;;;37.65;;
16039;SDS011;8124;48.634;8.120;2022-07-06T02:14:29;42.15;;;37.75;;
16039;SDS011;8124;48.634;8.120;2022-07-06T02:19:32;42.10;;;37.70;;
16039;SDS011;8124;48.634;8.120;2022-07-06T02:24:37;42.70;;;37.97;;
16039;SDS011;8124;48.634;8.120;2022-07-06T02:29:40;42.10;;;37.70;;
16039;SDS011;8124;48.634;8.120;2022-07-06T02:34:44;42.38;;;37.78;;
16039;SDS011;8124;48.634;8.120;2022-07-06T02:39:48;42.55;;;38.13;;
16039;SDS011;8124;48.634;8.120;2022-07-06T02:44:52;41.92;;;37.35;;
16039;SDS011;8124;48.634;8.120;2022-07-06T02:49:55;42.00;;;37.60;;
16039;SDS011;8124;48.634;8.120;2022-07-06T02:55:00;42.22;;;37.72;;
16039;SDS011;8124;48.634;8.120;2022-07-06T03:00:12;43.60;;;37.97;;
16039;SDS011;8124;48.634;8.120;2022-07-06T03:05:17;42.42;;;37.95;;
16039;SDS011;8124;48.634;8.120;2022-07-06T03:10:21;42.13;;;37.63;;
16039;SDS011;8124;48.634;8.120;2022-07-06T03:15:24;42.33;;;37.83;;
16039;SDS011;8124;48.634;8.120;2022-07-06T03:20:28;43.88;;;38.15;;
16039;SDS011;8124;48.634;8.120;2022-07-06T03:25:32;42.53;;;37.92;;
16039;SDS011;8124;48.634;8.120;2022-07-06T03:30:36;42.53;;;38.03;;
16039;SDS011;8124;48.634;8.120;2022-07-06T03:35:39;44.28;;;37.92;;
16039;SDS011;8124;48.634;8.120;2022-07-06T03:40:46;42.38;;;37.88;;
16039;SDS011;8124;48.634;8.120;2022-07-06T03:45:49;42.70;;;37.85;;
16039;SDS011;8124;48.634;8.120;2022-07-06T03:50:52;42.22;;;37.72;;
16039;SDS011;8124;48.634;8.120;2022-07-06T03:55:57;41.92;;;37.58;;
16039;SDS011;8124;48.634;8.120;2022-07-06T04:01:19;42.75;;;38.05;;
16039;SDS011;8124;48.634;8.120;2022-07-06T04:06:22;42.38;;;37.92;;
16039;SDS011;8124;48.634;8.120;2022-07-06T04:11:28;42.97;;;38.47;;
16039;SDS011;8124;48.634;8.120;2022-07-06T04:16:31;42.08;;;37.75;;
16039;SDS011;8124;48.634;8.120;2022-07-06T04:21:35;43.17;;;38.40;;
16039;SDS011;8124;48.634;8.120;2022-07-06T04:26:39;42.28;;;37.30;;
16039;SDS011;8124;48.634;8.120;2022-07-06T04:31:43;41.72;;;37.42;;
16039;SDS011;8124;48.634;8.120;2022-07-06T04:36:46;42.15;;;37.65;;
16039;SDS011;8124;48.634;8.120;2022-07-06T04:41:52;42.95;;;37.83;;
16039;SDS011;8124;48.634;8.120;2022-07-06T04:46:57;41.63;;;37.25;;
16039;SDS011;8124;48.634;8.120;2022-07-06T04:52:01;42.75;;;38.20;;
16039;SDS011;8124;48.634;8.120;2022-07-06T04:57:06;42.22;;;37.60;;
16039;SDS011;8124;48.634;8.120;2022-07-06T05:02:14;42.65;;;38.15;;
16039;SDS011;8124;48.634;8.120;2022-07-06T05:07:17;42.60;;;38.05;;
16039;SDS011;8124;48.634;8.120;2022-07-06T05:12:22;42.25;;;37.72;;
16039;SDS011;8124;48.634;8.120;2022-07-06T05:17:25;44.53;;;38.13;;
16039;SDS011;8124;48.634;8.120;2022-07-06T05:22:32;44.20;;;39.35;;
16039;SDS011;8124;48.634;8.120;2022-07-06T05:27:36;43.20;;;38.20;;
16039;SDS011;8124;48.634;8.120;2022-07-06T05:32:40;44.10;;;39.40;;
16039;SDS011;8124;48.634;8.120;2022-07-06T05:37:43;43.20;;;38.53;;
16039;SDS011;8124;48.634;8.120;2022-07-06T05:42:47;43.13;;;38.42;;
16039;SDS011;8124;48.634;8.120;2022-07-06T05:47:51;41.92;;;37.60;;
16039;SDS011;8124;48.634;8.120;2022-07-06T05:53:12;43.30;;;37.67;;
16039;SDS011;8124;48.634;8.120;2022-07-06T05:58:24;42.72;;;38.22;;
16039;SDS011;8124;48.634;8.120;2022-07-06T06:03:30;41.70;;;37.30;;
16039;SDS011;8124;48.634;8.120;2022-07-06T06:08:36;43.78;;;39.17;;
16039;SDS011;8124;48.634;8.120;2022-07-06T06:13:41;41.95;;;37.45;;
16039;SDS011;8124;48.634;8.120;2022-07-06T06:18:44;42.50;;;37.90;;
16039;SDS011;8124;48.634;8.120;2022-07-06T06:24:05;42.55;;;37.95;;
16039;SDS011;8124;48.634;8.120;2022-07-06T06:29:10;42.65;;;38.15;;
16039;SDS011;8124;48.634;8.120;2022-07-06T06:34:13;42.15;;;37.65;;
16039;SDS011;8124;48.634;8.120;2022-07-06T06:39:16;42.30;;;37.67;;
16039;SDS011;8124;48.634;8.120;2022-07-06T06:44:20;42.22;;;37.70;;
16039;SDS011;8124;48.634;8.120;2022-07-06T06:49:24;42.20;;;37.70;;
16039;SDS011;8124;48.634;8.120;2022-07-06T06:54:34;42.88;;;37.97;;
16039;SDS011;8124;48.634;8.120;2022-07-06T06:59:38;43.28;;;37.50;;
16039;SDS011;8124;48.634;8.120;2022-07-06T07:04:41;47.65;;;38.00;;
16039;SDS011;8124;48.634;8.120;2022-07-06T07:09:45;41.90;;;37.50;;
16039;SDS011;8124;48.634;8.120;2022-07-06T07:14:49;42.05;;;37.53;;
16039;SDS011;8124;48.634;8.120;2022-07-06T07:19:52;41.90;;;37.35;;
16039;SDS011;8124;48.634;8.120;2022-07-06T07:24:57;43.95;;;37.90;;
16039;SDS011;8124;48.634;8.120;2022-07-06T07:30:02;45.42;;;37.85;;
16039;SDS011;8124;48.634;8.120;2022-07-06T07:35:06;42.67;;;38.00;;
16039;SDS011;8124;48.634;8.120;2022-07-06T07:40:09;42.55;;;38.00;;
16039;SDS011;8124;48.634;8.120;2022-07-06T07:45:14;42.10;;;37.72;;
16039;SDS011;8124;48.634;8.120;2022-07-06T07:50:17;42.20;;;37.90;;
16039;SDS011;8124;48.634;8.120;2022-07-06T07:55:20;46.42;;;38.53;;
16039;SDS011;8124;48.634;8.120;2022-07-06T08:00:43;42.58;;;37.85;;
16039;SDS011;8124;48.634;8.120;2022-07-06T08:05:47;42.25;;;37.92;;
16039;SDS011;8124;48.634;8.120;2022-07-06T08:10:50;42.55;;;37.95;;
16039;SDS011;8124;48.634;8.120;2022-07-06T08:16:14;42.72;;;38.13;;
16039;SDS011;8124;48.634;8.120;2022-07-06T08:21:17;42.70;;;38.10;;
16039;SDS011;8124;48.634;8.120;2022-07-06T08:26:26;42.90;;;38.47;;
16039;SDS011;8124;48.634;8.120;2022-07-06T08:31:31;42.42;;;37.83;;
16039;SDS011;8124;48.634;8.120;2022-07-06T08:36:55;42.60;;;38.10;;
16039;SDS011;8124;48.634;8.120;2022-07-06T08:41:58;43.03;;;38.45;;
16039;SDS011;8124;48.634;8.120;2022-07-06T08:47:05;42.97;;;38.38;;
16039;SDS011;8124;48.634;8.120;2022-07-06T08:52:12;44.08;;;38.40;;
16039;SDS011;8124;48.634;8.120;2022-07-06T08:57:17;43.15;;;38.63;;
16039;SDS011;8124;48.634;8.120;2022-07-06T09:02:23;43.38;;;38.65;;
16039;SDS011;8124;48.634;8.120;2022-07-06T09:07:27;43.38;;;38.70;;
16039;SDS011;8124;48.634;8.120;2022-07-06T09:12:50;43.80;;;38.83;;
16039;SDS011;8124;48.634;8.120;2022-07-06T09:17:55;44.78;;;38.55;;
16039;SDS011;8124;48.634;8.120;2022-07-06T09:22:59;43.53;;;38.53;;
16039;SDS011;8124;48.634;8.120;2022-07-06T09:28:02;43.70;;;39.03;;
16039;SDS011;8124;48.634;8.120;2022-07-06T09:33:08;44.13;;;39.42;;
16039;SDS011;8124;48.634;8.120;2022-07-06T09:38:11;43.90;;;39.22;;
16039;SDS011;8124;48.634;8.120;2022-07-06T09:43:16;44.10;;;39.35;;
16039;SDS011;8124;48.634;8.120;2022-07-06T09:48:21;43.85;;;39.28;;
16039;SDS011;8124;48.634;8.120;2022-07-06T09:53:26;43.85;;;39.25;;
16039;SDS011;8124;48.634;8.120;2022-07-06T09:58:30;44.25;;;39.53;;
16039;SDS011;8124;48.634;8.120;2022-07-06T10:03:54;44.03;;;39.35;;
16039;SDS011;8124;48.634;8.120;2022-07-06T10:08:57;45.28;;;40.47;;
16039;SDS011;8124;48.634;8.120;2022-07-06T10:14:01;43.15;;;38.55;;
16039;SDS011;8124;48.634;8.120;2022-07-06T10:19:07;43.55;;;39.05;;
16039;SDS011;8124;48.634;8.120;2022-07-06T10:24:11;44.15;;;39.45;;
16039;SDS011;8124;48.634;8.120;2022-07-06T10:29:15;46.13;;;39.17;;
16039;SDS011;8124;48.634;8.120;2022-07-06T10:34:20;44.22;;;39.55;;
16039;SDS011;8124;48.634;8.120;2022-07-06T10:39:32;43.53;;;38.90;;
16039;SDS011;8124;48.634;8.120;2022-07-06T10:44:54;43.78;;;39.33;;
16039;SDS011;8124;48.634;8.120;2022-07-06T10:50:01;43.70;;;39.00;;
16039;SDS011;8124;48.634;8.120;2022-07-06T10:55:22;44.05;;;39.45;;
16039;SDS011;8124;48.634;8.120;2022-07-06T11:00:49;43.90;;;39.13;;
16039;SDS011;8124;48.634;8.120;2022-07-06T11:05:58;43.67;;;39.05;;
16039;SDS011;8124;48.634;8.120;2022-07-06T11:11:11;44.55;;;39.53;;
16039;SDS011;8124;48.634;8.120;2022-07-06T11:16:16;44.70;;;39.85;;
16039;SDS011;8124;48.634;8.120;2022-07-06T11:21:22;44.45;;;39.65;;
16039;SDS011;8124;48.634;8.120;2022-07-06T11:26:33;44.13;;;39.33;;
16039;SDS011;8124;48.634;8.120;2022-07-06T11:31:41;44.72;;;38.88;;
16039;SDS011;8124;48.634;8.120;2022-07-06T11:36:46;43.75;;;39.05;;
16039;SDS011;8124;48.634;8.120;2022-07-06T11:41:50;43.83;;;39.22;;
16039;SDS011;8124;48.634;8.120;2022-07-06T11:46:53;44.00;;;39.40;;
16039;SDS011;8124;48.634;8.120;2022-07-06T11:51:59;43.80;;;39.28;;
16039;SDS011;8124;48.634;8.120;2022-07-06T11:57:02;44.20;;;39.40;;
16039;SDS011;8124;48.634;8.120;2022-07-06T12:02:06;43.60;;;39.15;;
16039;SDS011;8124;48.634;8.120;2022-07-06T12:07:13;44.10;;;39.55;;
16039;SDS011;8124;48.634;8.120;2022-07-06T12:12:17;44.17;;;39.58;;
16039;SDS011;8124;48.634;8.120;2022-07-06T12:17:20;44.03;;;39.28;;
16039;SDS011;8124;48.634;8.120;2022-07-06T12:22:25;44.55;;;39.20;;
16039;SDS011;8124;48.634;8.120;2022-07-06T12:27:28;43.40;;;38.90;;
16039;SDS011;8124;48.634;8.120;2022-07-06T12:32:36;43.88;;;39.38;;
16039;SDS011;8124;48.634;8.120;2022-07-06T12:37:41;43.80;;;39.33;;
16039;SDS011;8124;48.634;8.120;2022-07-06T12:42:57;44.00;;;39.40;;
16039;SDS011;8124;48.634;8.120;2022-07-06T12:48:01;43.83;;;39.08;;
16039;SDS011;8124;48.634;8.120;2022-07-06T12:53:22;44.17;;;39.47;;
16039;SDS011;8124;48.634;8.120;2022-07-06T12:58:28;44.13;;;39.53;;
16039;SDS011;8124;48.634;8.120;2022-07-06T13:03:37;44.50;;;38.97;;
16039;SDS011;8124;48.634;8.120;2022-07-06T13:08:42;43.50;;;39.00;;
16039;SDS011;8124;48.634;8.120;2022-07-06T13:13:45;43.65;;;39.15;;
16039;SDS011;8124;48.634;8.120;2022-07-06T13:18:48;43.40;;;38.92;;
16039;SDS011;8124;48.634;8.120;2022-07-06T13:23:52;45.08;;;40.22;;
16039;SDS011;8124;48.634;8.120;2022-07-06T13:28:55;43.58;;;38.88;;
16039;SDS011;8124;48.634;8.120;2022-07-06T13:34:00;44.90;;;39.67;;
16039;SDS011;8124;48.634;8.120;2022-07-06T13:39:05;43.17;;;38.67;;
16039;SDS011;8124;48.634;8.120;2022-07-06T13:44:08;43.35;;;38.88;;
16039;SDS011;8124;48.634;8.120;2022-07-06T13:49:15;44.60;;;39.25;;
16039;SDS011;8124;48.634;8.120;2022-07-06T13:54:20;44.08;;;38.97;;
16039;SDS011;8124;48.634;8.120;2022-07-06T13:59:23;43.83;;;39.22;;
16039;SDS011;8124;48.634;8.120;2022-07-06T14:04:26;43.35;;;38.85;;
16039;SDS011;8124;48.634;8.120;2022-07-06T14:09:30;43.63;;;39.13;;
16039;SDS011;8124;48.634;8.120;2022-07-06T14:14:33;43.35;;;38.85;;
16039;SDS011;8124;48.634;8.120;2022-07-06T14:19:36;43.10;;;38.60;;
16039;SDS011;8124;48.634;8.120;2022-07-06T14:24:48;43.05;;;38.45;;
16039;SDS011;8124;48.634;8.120;2022-07-06T14:29:51;45.83;;;38.95;;
16039;SDS011;8124;48.634;8.120;2022-07-06T14:34:54;42.80;;;38.30;;
16039;SDS011;8124;48.634;8.120;2022-07-06T14:39:58;42.95;;;38.40;;
16039;SDS011;8124;48.634;8.120;2022-07-06T14:45:01;43.22;;;38.58;;
16039;SDS011;8124;48.634;8.120;2022-07-06T14:50:05;42.58;;;38.20;;
16039;SDS011;8124;48.634;8.120;2022-07-06T14:55:09;43.10;;;38.60;;
16039;SDS011;8124;48.634;8.120;2022-07-06T15:00:15;42.78;;;38.38;;
16039;SDS011;8124;48.634;8.120;2022-07-06T15:05:19;42.53;;;38.13;;
16039;SDS011;8124;48.634;8.120;2022-07-06T15:10:24;42.80;;;38.40;;
16039;SDS011;8124;48.634;8.120;2022-07-06T15:15:27;42.45;;;38.05;;
16039;SDS011;8124;48.634;8.120;2022-07-06T15:20:50;42.55;;;38.15;;
16039;SDS011;8124;48.634;8.120;2022-07-06T15:25:54;42.83;;;38.38;;
16039;SDS011;8124;48.634;8.120;2022-07-06T15:30:57;42.78;;;38.13;;
16039;SDS011;8124;48.634;8.120;2022-07-06T15:36:00;43.05;;;38.45;;
16039;SDS011;8124;48.634;8.120;2022-07-06T15:41:04;42.78;;;38.25;;
16039;SDS011;8124;48.634;8.120;2022-07-06T15:46:07;42.83;;;38.22;;
16039;SDS011;8124;48.634;8.120;2022-07-06T15:51:11;43.08;;;38.58;;
16039;SDS011;8124;48.634;8.120;2022-07-06T15:56:15;43.00;;;38.53;;
16039;SDS011;8124;48.634;8.120;2022-07-06T16:01:18;42.92;;;38.33;;
16039;SDS011;8124;48.634;8.120;2022-07-06T16:06:21;43.17;;;38.78;;
16039;SDS011;8124;48.634;8.120;2022-07-06T16:11:25;42.95;;;38.50;;
16039;SDS011;8124;48.634;8.120;2022-07-06T16:16:28;42.95;;;38.55;;
16039;SDS011;8124;48.634;8.120;2022-07-06T16:21:32;43.13;;;38.78;;
16039;SDS011;8124;48.634;8.120;2022-07-06T16:26:39;43.95;;;39.35;;
16039;SDS011;8124;48.634;8.120;2022-07-06T16:31:43;42.70;;;38.30;;
16039;SDS011;8124;48.634;8.120;2022-07-06T16:36:48;44.10;;;38.70;;
16039;SDS011;8124;48.634;8.120;2022-07-06T16:41:54;42.50;;;38.10;;
16039;SDS011;8124;48.634;8.120;2022-07-06T16:46:58;42.70;;;38.10;;
16039;SDS011;8124;48.634;8.120;2022-07-06T16:52:02;42.65;;;38.15;;
16039;SDS011;8124;48.634;8.120;2022-07-06T16:57:07;42.42;;;38.13;;
16039;SDS011;8124;48.634;8.120;2022-07-06T17:02:10;43.40;;;38.90;;
16039;SDS011;8124;48.634;8.120;2022-07-06T17:07:13;42.55;;;38.17;;
16039;SDS011;8124;48.634;8.120;2022-07-06T17:12:17;43.05;;;38.17;;
16039;SDS011;8124;48.634;8.120;2022-07-06T17:17:21;42.72;;;38.30;;
16039;SDS011;8124;48.634;8.120;2022-07-06T17:22:24;42.55;;;38.15;;
16039;SDS011;8124;48.634;8.120;2022-07-06T17:27:44;42.53;;;38.15;;
16039;SDS011;8124;48.634;8.120;2022-07-06T17:32:54;42.88;;;38.28;;
16039;SDS011;8124;48.634;8.120;2022-07-06T17:37:57;43.10;;;38.45;;
16039;SDS011;8124;48.634;8.120;2022-07-06T17:43:03;42.95;;;38.45;;
16039;SDS011;8124;48.634;8.120;2022-07-06T17:48:06;46.28;;;38.03;;
16039;SDS011;8124;48.634;8.120;2022-07-06T17:53:11;42.50;;;38.15;;
16039;SDS011;8124;48.634;8.120;2022-07-06T17:58:16;42.80;;;38.30;;
16039;SDS011;8124;48.634;8.120;2022-07-06T18:03:18;42.45;;;38.08;;
16039;SDS011;8124;48.634;8.120;2022-07-06T18:08:21;43.05;;;38.45;;
16039;SDS011;8124;48.634;8.120;2022-07-06T18:13:26;43.15;;;38.75;;
16039;SDS011;8124;48.634;8.120;2022-07-06T18:18:31;42.83;;;38.35;;
16039;SDS011;8124;48.634;8.120;2022-07-06T18:23:36;43.05;;;38.33;;
16039;SDS011;8124;48.634;8.120;2022-07-06T18:28:40;42.67;;;38.35;;
16039;SDS011;8124;48.634;8.120;2022-07-06T18:33:43;42.97;;;38.38;;
16039;SDS011;8124;48.634;8.120;2022-07-06T18:38:46;42.95;;;38.58;;
16039;SDS011;8124;48.634;8.120;2022-07-06T18:43:52;42.75;;;38.40;;
16039;SDS011;8124;48.634;8.120;2022-07-06T18:48:55;43.47;;;38.88;;
16039;SDS011;8124;48.634;8.120;2022-07-06T18:53:58;42.88;;;38.50;;
16039;SDS011;8124;48.634;8.120;2022-07-06T18:59:03;42.85;;;38.35;;
16039;SDS011;8124;48.634;8.120;2022-07-06T19:04:06;43.30;;;38.47;;
16039;SDS011;8124;48.634;8.120;2022-07-06T19:09:10;42.38;;;38.05;;
16039;SDS011;8124;48.634;8.120;2022-07-06T19:14:15;42.90;;;38.40;;
16039;SDS011;8124;48.634;8.120;2022-07-06T19:19:20;43.10;;;38.30;;
16039;SDS011;8124;48.634;8.120;2022-07-06T19:24:23;42.85;;;38.35;;
16039;SDS011;8124;48.634;8.120;2022-07-06T19:29:30;43.13;;;38.65;;
16039;SDS011;8124;48.634;8.120;2022-07-06T19:34:33;42.70;;;38.33;;
16039;SDS011;8124;48.634;8.120;2022-07-06T19:39:36;42.53;;;38.10;;
16039;SDS011;8124;48.634;8.120;2022-07-06T19:44:41;43.17;;;38.58;;
16039;SDS011;8124;48.634;8.120;2022-07-06T19:49:44;42.80;;;38.45;;
16039;SDS011;8124;48.634;8.120;2022-07-06T19:54:48;43.05;;;38.55;;
16039;SDS011;8124;48.634;8.120;2022-07-06T19:59:59;43.03;;;38.53;;
16039;SDS011;8124;48.634;8.120;2022-07-06T20:05:08;43.05;;;38.65;;
16039;SDS011;8124;48.634;8.120;2022-07-06T20:10:11;43.08;;;38.67;;
16039;SDS011;8124;48.634;8.120;2022-07-06T20:15:16;43.05;;;38.65;;
16039;SDS011;8124;48.634;8.120;2022-07-06T20:20:20;42.85;;;38.47;;
16039;SDS011;8124;48.634;8.120;2022-07-06T20:25:23;43.08;;;38.53;;
16039;SDS011;8124;48.634;8.120;2022-07-06T20:30:28;42.92;;;38.38;;
16039;SDS011;8124;48.634;8.120;2022-07-06T20:35:31;42.72;;;38.35;;
16039;SDS011;8124;48.634;8.120;2022-07-06T20:40:35;42.67;;;38.28;;
16039;SDS011;8124;48.634;8.120;2022-07-06T20:45:39;42.67;;;38.33;;
16039;SDS011;8124;48.634;8.120;2022-07-06T20:50:42;42.53;;;38.10;;
16039;SDS011;8124;48.634;8.120;2022-07-06T20:55:45;43.13;;;38.53;;
16039;SDS011;8124;48.634;8.120;2022-07-06T21:00:49;43.15;;;38.75;;
16039;SDS011;8124;48.634;8.120;2022-07-06T21:05:52;42.80;;;38.40;;
16039;SDS011;8124;48.634;8.120;2022-07-06T21:10:55;42.65;;;38.15;;
16039;SDS011;8124;48.634;8.120;2022-07-06T21:15:59;42.80;;;38.28;;
16039;SDS011;8124;48.634;8.120;2022-07-06T21:21:02;42.30;;;37.92;;
16039;SDS011;8124;48.634;8.120;2022-07-06T21:26:05;42.63;;;38.25;;
16039;SDS011;8124;48.634;8.120;2022-07-06T21:31:10;42.65;;;38.05;;
16039;SDS011;8124;48.634;8.120;2022-07-06T21:36:13;42.05;;;37.75;;
16039;SDS011;8124;48.634;8.120;2022-07-06T21:41:16;41.90;;;37.50;;
16039;SDS011;8124;48.634;8.120;2022-07-06T21:46:21;42.05;;;37.65;;
16039;SDS011;8124;48.634;8.120;2022-07-06T21:51:24;41.90;;;37.55;;
16039;SDS011;8124;48.634;8.120;2022-07-06T21:56:27;42.08;;;37.58;;
16039;SDS011;8124;48.634;8.120;2022-07-06T22:01:31;41.97;;;37.60;;
16039;SDS011;8124;48.634;8.120;2022-07-06T22:06:34;41.78;;;37.38;;
16039;SDS011;8124;48.634;8.120;2022-07-06T22:11:38;41.80;;;37.42;;
16039;SDS011;8124;48.634;8.120;2022-07-06T22:16:46;41.92;;;37.55;;
16039;SDS011;8124;48.634;8.120;2022-07-06T22:21:49;41.38;;;37.15;;
16039;SDS011;8124;48.634;8.120;2022-07-06T22:26:53;42.28;;;37.78;;
16039;SDS011;8124;48.634;8.120;2022-07-06T22:31:58;41.20;;;36.97;;
16039;SDS011;8124;48.634;8.120;2022-07-06T22:37:01;41.00;;;36.70;;
16039;SDS011;8124;48.634;8.120;2022-07-06T22:42:04;41.28;;;36.90;;
16039;SDS011;8124;48.634;8.120;2022-07-06T22:47:09;42.60;;;36.78;;
16039;SDS011;8124;48.634;8.120;2022-07-06T22:52:12;41.00;;;36.75;;
16039;SDS011;8124;48.634;8.120;2022-07-06T22:57:14;40.67;;;36.47;;
16039;SDS011;8124;48.634;8.120;2022-07-06T23:02:19;41.47;;;36.97;;
16039;SDS011;8124;48.634;8.120;2022-07-06T23:07:26;42.17;;;36.80;;
16039;SDS011;8124;48.634;8.120;2022-07-06T23:12:29;41.28;;;37.08;;
16039;SDS011;8124;48.634;8.120;2022-07-06T23:17:33;40.75;;;36.55;;
16039;SDS011;8124;48.634;8.120;2022-07-06T23:22:36;41.70;;;37.40;;
16039;SDS011;8124;48.634;8.120;2022-07-06T23:27:39;41.15;;;36.70;;
16039;SDS011;8124;48.634;8.120;2022-07-06T23:32:44;42.45;;;38.10;;
16039;SDS011;8124;48.634;8.120;2022-07-06T23:37:47;40.55;;;36.35;;
16039;SDS011;8124;48.634;8.120;2022-07-06T23:42:50;41.03;;;36.83;;
16039;SDS011;8124;48.634;8.120;2022-07-06T23:47:54;40.80;;;36.42;;
16039;SDS011;8124;48.634;8.120;2022-07-06T23:52:57;41.08;;;36.78;;
16039;SDS011;8124;48.634;8.120;2022-07-06T23:58:00;40.47;;;36.17;;
